Главная страница
METAR-TAF:

METAR-TAF

Аэропорты :

Гостомель, Украина

Антонов

широта: 50-36-01N, долгота: 030-11-37E, высота над уровнем моря: 157 м

Текущие метеонаблюдения

Эта сводка был подготовлена 35 минут назад, в 19:00 UTC
Ветер 16 Узел от южный с порывами до 25 Узел, изменяющийся между юго-восточный и южный-юго-западный
Температура 16°C
Влажность 48%
Давление 1014 hPa
Видимость 10 км и более

METAR: UKKM 261900Z AUTO 18008G13MPS 140V200 9999 ///240/// 16/05 Q1014

Время: 22:35 (19:35 UTC)

Прогноз

Эта сводка был подготовлена 2 часа и 34 минут назад, в 17:01 UTC
Прогноз действительный с 26-го 18 UTC до 27-го 18 UTC
Ветер 14 Узел от южный
Видимость: 6000 м
Отдельные облака на высоте 2000 фута
Рассеянная облачность на высоте 7000 фута
временами
С 26-го 18 UTC до 27-го 16 UTC
Ветер 17 Узел от южный с порывами до 27 Узел
Отдельные облака на высоте 2000 фута, Кучево-дождевые.

TAF: UKKM 261701Z 2618/2718 19007MPS 6000 SCT020 BKN070 TEMPO 2618/2716 18009G14MPS SCT020CB

Метеонаблюдения и прогнозы для более 4000 аэропортов (сводки METAR и TAF).

Имеющиеся станции представлены на карте желтыми и красными точками.

Чтобы увидеть название станции, наведите на нее мышь.

Затем щелкните, чтобы увидеть метеонаблюдения и метеопрогнозы.

Управление картой: чтобы увеличить масштаб, щелкните зеленые кнопки с черным крестиком; чтобы уменьшить масштаб, щелкните зеленую кнопку с тире; для просмотра соседних карт щелкайте зеленые стрелки.


METAR-TAF: